sensor_id;sensor_type;location;lat;lon;timestamp;temperature;humidity
42907;DHT22;28552;51.146;6.576;2023-02-04T00:01:13;8.10;99.90
42907;DHT22;28552;51.146;6.576;2023-02-04T00:04:14;8.10;99.90
42907;DHT22;28552;51.146;6.576;2023-02-04T00:07:14;8.10;99.90
42907;DHT22;28552;51.146;6.576;2023-02-04T00:10:17;8.00;99.90
42907;DHT22;28552;51.146;6.576;2023-02-04T00:13:18;8.00;99.90
42907;DHT22;28552;51.146;6.576;2023-02-04T00:16:18;8.00;99.90
42907;DHT22;28552;51.146;6.576;2023-02-04T00:19:19;8.00;99.90
42907;DHT22;28552;51.146;6.576;2023-02-04T00:22:19;8.00;99.90
42907;DHT22;28552;51.146;6.576;2023-02-04T00:25:20;8.00;99.90
42907;DHT22;28552;51.146;6.576;2023-02-04T00:28:21;8.00;99.90
42907;DHT22;28552;51.146;6.576;2023-02-04T00:31:21;8.00;99.90
42907;DHT22;28552;51.146;6.576;2023-02-04T00:34:22;8.00;99.90
42907;DHT22;28552;51.146;6.576;2023-02-04T00:37:22;7.90;99.90
42907;DHT22;28552;51.146;6.576;2023-02-04T00:40:23;7.90;99.90
42907;DHT22;28552;51.146;6.576;2023-02-04T00:43:23;7.90;99.90
42907;DHT22;28552;51.146;6.576;2023-02-04T00:46:24;7.90;99.90
42907;DHT22;28552;51.146;6.576;2023-02-04T00:49:24;7.90;99.90
42907;DHT22;28552;51.146;6.576;2023-02-04T00:52:25;7.90;99.90
42907;DHT22;28552;51.146;6.576;2023-02-04T00:55:25;7.90;99.90
42907;DHT22;28552;51.146;6.576;2023-02-04T00:58:26;7.90;99.90
42907;DHT22;28552;51.146;6.576;2023-02-04T01:01:26;7.80;99.90
42907;DHT22;28552;51.146;6.576;2023-02-04T01:04:27;7.80;99.90
42907;DHT22;28552;51.146;6.576;2023-02-04T01:07:28;7.80;99.90
42907;DHT22;28552;51.146;6.576;2023-02-04T01:10:29;7.80;99.90
42907;DHT22;28552;51.146;6.576;2023-02-04T01:13:29;7.80;99.90
42907;DHT22;28552;51.146;6.576;2023-02-04T01:16:30;7.80;99.90
42907;DHT22;28552;51.146;6.576;2023-02-04T01:19:30;7.70;99.90
42907;DHT22;28552;51.146;6.576;2023-02-04T01:22:31;7.70;99.90
42907;DHT22;28552;51.146;6.576;2023-02-04T01:25:31;7.70;99.90
42907;DHT22;28552;51.146;6.576;2023-02-04T01:28:32;7.70;99.90
42907;DHT22;28552;51.146;6.576;2023-02-04T01:31:32;7.70;99.90
42907;DHT22;28552;51.146;6.576;2023-02-04T01:34:33;7.70;99.90
42907;DHT22;28552;51.146;6.576;2023-02-04T01:37:34;7.70;99.90
42907;DHT22;28552;51.146;6.576;2023-02-04T01:40:34;7.70;99.90
42907;DHT22;28552;51.146;6.576;2023-02-04T01:43:35;7.70;99.90
42907;DHT22;28552;51.146;6.576;2023-02-04T01:46:35;7.60;99.90
42907;DHT22;28552;51.146;6.576;2023-02-04T01:49:36;7.60;99.90
42907;DHT22;28552;51.146;6.576;2023-02-04T01:52:38;7.60;99.90
42907;DHT22;28552;51.146;6.576;2023-02-04T01:55:39;7.50;99.90
42907;DHT22;28552;51.146;6.576;2023-02-04T01:58:40;7.50;99.90
42907;DHT22;28552;51.146;6.576;2023-02-04T02:01:44;7.50;99.90
42907;DHT22;28552;51.146;6.576;2023-02-04T02:04:45;7.40;99.90
42907;DHT22;28552;51.146;6.576;2023-02-04T02:07:47;7.50;99.90
42907;DHT22;28552;51.146;6.576;2023-02-04T02:10:48;7.50;99.90
42907;DHT22;28552;51.146;6.576;2023-02-04T02:13:49;7.40;99.90
42907;DHT22;28552;51.146;6.576;2023-02-04T02:16:50;7.40;99.90
42907;DHT22;28552;51.146;6.576;2023-02-04T02:19:50;7.40;99.90
42907;DHT22;28552;51.146;6.576;2023-02-04T02:23:04;7.40;99.90
42907;DHT22;28552;51.146;6.576;2023-02-04T02:26:05;7.40;99.90
42907;DHT22;28552;51.146;6.576;2023-02-04T02:29:06;7.40;99.90
42907;DHT22;28552;51.146;6.576;2023-02-04T02:32:07;7.40;99.90
42907;DHT22;28552;51.146;6.576;2023-02-04T02:35:08;7.30;99.90
42907;DHT22;28552;51.146;6.576;2023-02-04T02:38:10;7.30;99.90
42907;DHT22;28552;51.146;6.576;2023-02-04T02:41:11;7.20;99.90
42907;DHT22;28552;51.146;6.576;2023-02-04T02:44:13;7.30;99.90
42907;DHT22;28552;51.146;6.576;2023-02-04T02:47:16;7.20;99.90
42907;DHT22;28552;51.146;6.576;2023-02-04T02:50:20;7.20;99.90
42907;DHT22;28552;51.146;6.576;2023-02-04T02:53:22;7.20;99.90
42907;DHT22;28552;51.146;6.576;2023-02-04T02:56:22;7.20;99.90
42907;DHT22;28552;51.146;6.576;2023-02-04T02:59:24;7.10;99.90
42907;DHT22;28552;51.146;6.576;2023-02-04T03:02:24;7.10;99.90
42907;DHT22;28552;51.146;6.576;2023-02-04T03:05:26;7.10;99.90
42907;DHT22;28552;51.146;6.576;2023-02-04T03:08:28;7.10;99.90
42907;DHT22;28552;51.146;6.576;2023-02-04T03:11:29;7.10;99.90
42907;DHT22;28552;51.146;6.576;2023-02-04T03:14:29;7.10;99.90
42907;DHT22;28552;51.146;6.576;2023-02-04T03:17:31;7.10;99.90
42907;DHT22;28552;51.146;6.576;2023-02-04T03:20:32;7.00;99.90
42907;DHT22;28552;51.146;6.576;2023-02-04T03:23:33;7.00;99.90
42907;DHT22;28552;51.146;6.576;2023-02-04T03:26:35;7.00;99.90
42907;DHT22;28552;51.146;6.576;2023-02-04T03:29:42;7.00;99.90
42907;DHT22;28552;51.146;6.576;2023-02-04T03:32:42;7.00;99.90
42907;DHT22;28552;51.146;6.576;2023-02-04T03:35:43;7.00;99.90
42907;DHT22;28552;51.146;6.576;2023-02-04T03:38:43;6.90;99.90
42907;DHT22;28552;51.146;6.576;2023-02-04T03:41:44;6.90;99.90
42907;DHT22;28552;51.146;6.576;2023-02-04T03:44:45;6.90;99.90
42907;DHT22;28552;51.146;6.576;2023-02-04T03:47:45;6.90;99.90
42907;DHT22;28552;51.146;6.576;2023-02-04T03:50:46;6.90;99.90
42907;DHT22;28552;51.146;6.576;2023-02-04T03:53:46;6.90;99.90
42907;DHT22;28552;51.146;6.576;2023-02-04T03:56:47;6.90;99.90
42907;DHT22;28552;51.146;6.576;2023-02-04T03:59:47;6.80;99.90
42907;DHT22;28552;51.146;6.576;2023-02-04T04:02:48;6.80;99.90
42907;DHT22;28552;51.146;6.576;2023-02-04T04:05:48;6.70;99.90
42907;DHT22;28552;51.146;6.576;2023-02-04T04:08:49;6.70;99.90
42907;DHT22;28552;51.146;6.576;2023-02-04T04:11:49;6.70;99.90
42907;DHT22;28552;51.146;6.576;2023-02-04T04:14:50;6.60;99.90
42907;DHT22;28552;51.146;6.576;2023-02-04T04:17:50;6.50;99.90
42907;DHT22;28552;51.146;6.576;2023-02-04T04:20:51;6.40;99.90
42907;DHT22;28552;51.146;6.576;2023-02-04T04:23:51;6.40;99.90
42907;DHT22;28552;51.146;6.576;2023-02-04T04:26:52;6.40;99.90
42907;DHT22;28552;51.146;6.576;2023-02-04T04:29:52;6.30;99.90
42907;DHT22;28552;51.146;6.576;2023-02-04T04:32:53;6.30;99.90
42907;DHT22;28552;51.146;6.576;2023-02-04T04:35:53;6.30;99.90
42907;DHT22;28552;51.146;6.576;2023-02-04T04:38:54;6.30;99.90
42907;DHT22;28552;51.146;6.576;2023-02-04T04:41:55;6.20;99.90
42907;DHT22;28552;51.146;6.576;2023-02-04T04:44:55;6.20;99.90
42907;DHT22;28552;51.146;6.576;2023-02-04T04:47:56;6.20;99.90
42907;DHT22;28552;51.146;6.576;2023-02-04T04:50:56;6.10;99.90
42907;DHT22;28552;51.146;6.576;2023-02-04T04:53:58;6.10;99.90
42907;DHT22;28552;51.146;6.576;2023-02-04T04:56:59;6.00;99.90
42907;DHT22;28552;51.146;6.576;2023-02-04T04:59:59;6.00;99.90
42907;DHT22;28552;51.146;6.576;2023-02-04T05:03:00;6.00;99.90
42907;DHT22;28552;51.146;6.576;2023-02-04T05:06:01;6.00;99.90
42907;DHT22;28552;51.146;6.576;2023-02-04T05:09:01;6.00;99.90
42907;DHT22;28552;51.146;6.576;2023-02-04T05:12:02;6.00;99.90
42907;DHT22;28552;51.146;6.576;2023-02-04T05:15:03;5.90;99.90
42907;DHT22;28552;51.146;6.576;2023-02-04T05:18:04;5.90;99.90
42907;DHT22;28552;51.146;6.576;2023-02-04T05:21:05;5.80;99.90
42907;DHT22;28552;51.146;6.576;2023-02-04T05:24:06;5.70;99.90
42907;DHT22;28552;51.146;6.576;2023-02-04T05:27:06;5.60;99.90
42907;DHT22;28552;51.146;6.576;2023-02-04T05:30:09;5.60;99.90
42907;DHT22;28552;51.146;6.576;2023-02-04T05:33:09;5.60;99.90
42907;DHT22;28552;51.146;6.576;2023-02-04T05:36:10;5.60;99.90
42907;DHT22;28552;51.146;6.576;2023-02-04T05:39:10;5.70;99.90
42907;DHT22;28552;51.146;6.576;2023-02-04T05:42:11;5.70;99.90
42907;DHT22;28552;51.146;6.576;2023-02-04T05:45:14;5.80;99.90
42907;DHT22;28552;51.146;6.576;2023-02-04T05:48:15;5.80;99.90
42907;DHT22;28552;51.146;6.576;2023-02-04T05:51:16;5.90;99.90
42907;DHT22;28552;51.146;6.576;2023-02-04T05:54:16;5.90;99.90
42907;DHT22;28552;51.146;6.576;2023-02-04T05:57:19;5.90;99.90
42907;DHT22;28552;51.146;6.576;2023-02-04T06:00:20;5.90;99.90
42907;DHT22;28552;51.146;6.576;2023-02-04T06:03:21;5.90;99.90
42907;DHT22;28552;51.146;6.576;2023-02-04T06:06:21;5.90;99.90
42907;DHT22;28552;51.146;6.576;2023-02-04T06:09:22;6.00;99.90
42907;DHT22;28552;51.146;6.576;2023-02-04T06:12:22;6.00;99.90
42907;DHT22;28552;51.146;6.576;2023-02-04T06:15:22;6.00;99.90
42907;DHT22;28552;51.146;6.576;2023-02-04T06:18:23;6.00;99.90
42907;DHT22;28552;51.146;6.576;2023-02-04T06:21:24;6.00;99.90
42907;DHT22;28552;51.146;6.576;2023-02-04T06:24:24;6.00;99.90
42907;DHT22;28552;51.146;6.576;2023-02-04T06:27:25;6.00;99.90
42907;DHT22;28552;51.146;6.576;2023-02-04T06:30:25;6.00;99.90
42907;DHT22;28552;51.146;6.576;2023-02-04T06:33:26;6.00;99.90
42907;DHT22;28552;51.146;6.576;2023-02-04T06:36:26;6.00;99.90
42907;DHT22;28552;51.146;6.576;2023-02-04T06:39:27;6.00;99.90
42907;DHT22;28552;51.146;6.576;2023-02-04T06:42:27;6.00;99.90
42907;DHT22;28552;51.146;6.576;2023-02-04T06:45:28;6.10;99.90
42907;DHT22;28552;51.146;6.576;2023-02-04T06:48:28;6.00;99.90
42907;DHT22;28552;51.146;6.576;2023-02-04T06:51:29;6.00;99.90
42907;DHT22;28552;51.146;6.576;2023-02-04T06:54:29;6.00;99.90
42907;DHT22;28552;51.146;6.576;2023-02-04T06:57:30;6.00;99.90
42907;DHT22;28552;51.146;6.576;2023-02-04T07:00:31;5.90;99.90
42907;DHT22;28552;51.146;6.576;2023-02-04T07:03:31;6.00;99.90
42907;DHT22;28552;51.146;6.576;2023-02-04T07:06:32;6.00;99.90
42907;DHT22;28552;51.146;6.576;2023-02-04T07:09:32;5.90;99.90
42907;DHT22;28552;51.146;6.576;2023-02-04T07:12:33;5.90;99.90
42907;DHT22;28552;51.146;6.576;2023-02-04T07:15:33;6.00;99.90
42907;DHT22;28552;51.146;6.576;2023-02-04T07:18:34;6.00;99.90
42907;DHT22;28552;51.146;6.576;2023-02-04T07:21:34;6.00;99.90
42907;DHT22;28552;51.146;6.576;2023-02-04T07:24:35;6.10;99.90
42907;DHT22;28552;51.146;6.576;2023-02-04T07:27:35;6.10;99.90
42907;DHT22;28552;51.146;6.576;2023-02-04T07:30:36;6.10;99.90
42907;DHT22;28552;51.146;6.576;2023-02-04T07:33:37;6.10;99.90
42907;DHT22;28552;51.146;6.576;2023-02-04T07:36:38;6.10;99.90
42907;DHT22;28552;51.146;6.576;2023-02-04T07:39:38;6.10;99.90
42907;DHT22;28552;51.146;6.576;2023-02-04T07:42:39;6.20;99.90
42907;DHT22;28552;51.146;6.576;2023-02-04T07:45:40;6.20;99.90
42907;DHT22;28552;51.146;6.576;2023-02-04T07:48:41;6.20;99.90
42907;DHT22;28552;51.146;6.576;2023-02-04T07:51:41;6.30;99.90
42907;DHT22;28552;51.146;6.576;2023-02-04T07:54:42;6.30;99.90
42907;DHT22;28552;51.146;6.576;2023-02-04T07:57:42;6.40;99.90
42907;DHT22;28552;51.146;6.576;2023-02-04T08:00:43;6.40;99.90
42907;DHT22;28552;51.146;6.576;2023-02-04T08:03:43;6.50;99.90
42907;DHT22;28552;51.146;6.576;2023-02-04T08:06:44;6.50;99.90
42907;DHT22;28552;51.146;6.576;2023-02-04T08:09:44;6.60;99.90
42907;DHT22;28552;51.146;6.576;2023-02-04T08:12:46;6.60;99.90
42907;DHT22;28552;51.146;6.576;2023-02-04T08:15:46;6.60;99.90
42907;DHT22;28552;51.146;6.576;2023-02-04T08:18:47;6.70;99.90
42907;DHT22;28552;51.146;6.576;2023-02-04T08:21:48;6.70;99.90
42907;DHT22;28552;51.146;6.576;2023-02-04T08:24:48;6.70;99.90
42907;DHT22;28552;51.146;6.576;2023-02-04T08:27:49;6.70;99.90
42907;DHT22;28552;51.146;6.576;2023-02-04T08:30:49;6.70;99.90
42907;DHT22;28552;51.146;6.576;2023-02-04T08:33:50;6.80;99.90
42907;DHT22;28552;51.146;6.576;2023-02-04T08:36:50;6.80;99.90
42907;DHT22;28552;51.146;6.576;2023-02-04T08:39:51;6.80;99.90
42907;DHT22;28552;51.146;6.576;2023-02-04T08:42:52;6.90;99.90
42907;DHT22;28552;51.146;6.576;2023-02-04T08:45:52;6.90;99.90
42907;DHT22;28552;51.146;6.576;2023-02-04T08:48:53;7.00;99.90
42907;DHT22;28552;51.146;6.576;2023-02-04T08:51:54;7.00;99.90
42907;DHT22;28552;51.146;6.576;2023-02-04T08:54:54;7.10;99.90
42907;DHT22;28552;51.146;6.576;2023-02-04T08:57:55;7.10;99.90
42907;DHT22;28552;51.146;6.576;2023-02-04T09:00:55;7.10;99.90
42907;DHT22;28552;51.146;6.576;2023-02-04T09:03:56;7.30;99.90
42907;DHT22;28552;51.146;6.576;2023-02-04T09:06:56;7.30;99.90
42907;DHT22;28552;51.146;6.576;2023-02-04T09:09:57;7.30;99.90
42907;DHT22;28552;51.146;6.576;2023-02-04T09:12:57;7.30;99.90
42907;DHT22;28552;51.146;6.576;2023-02-04T09:15:58;7.40;99.90
42907;DHT22;28552;51.146;6.576;2023-02-04T09:18:59;7.40;99.90
42907;DHT22;28552;51.146;6.576;2023-02-04T09:22:01;7.50;99.90
42907;DHT22;28552;51.146;6.576;2023-02-04T09:25:01;7.60;99.90
42907;DHT22;28552;51.146;6.576;2023-02-04T09:28:02;7.70;99.90
42907;DHT22;28552;51.146;6.576;2023-02-04T09:31:02;7.60;99.90
42907;DHT22;28552;51.146;6.576;2023-02-04T09:34:06;7.60;99.90
42907;DHT22;28552;51.146;6.576;2023-02-04T09:37:07;7.60;99.90
42907;DHT22;28552;51.146;6.576;2023-02-04T09:40:12;7.70;99.90
42907;DHT22;28552;51.146;6.576;2023-02-04T09:43:19;7.70;99.90
42907;DHT22;28552;51.146;6.576;2023-02-04T09:46:23;7.70;99.90
42907;DHT22;28552;51.146;6.576;2023-02-04T09:49:25;7.80;99.90
42907;DHT22;28552;51.146;6.576;2023-02-04T09:52:26;7.80;99.90
42907;DHT22;28552;51.146;6.576;2023-02-04T09:55:29;7.90;99.90
42907;DHT22;28552;51.146;6.576;2023-02-04T09:58:32;8.00;99.90
42907;DHT22;28552;51.146;6.576;2023-02-04T10:01:34;8.10;99.90
42907;DHT22;28552;51.146;6.576;2023-02-04T10:04:35;8.10;99.90
42907;DHT22;28552;51.146;6.576;2023-02-04T10:07:36;8.20;99.90
42907;DHT22;28552;51.146;6.576;2023-02-04T10:10:37;8.20;99.90
42907;DHT22;28552;51.146;6.576;2023-02-04T10:13:42;8.10;99.90
42907;DHT22;28552;51.146;6.576;2023-02-04T10:16:53;8.20;99.90
42907;DHT22;28552;51.146;6.576;2023-02-04T10:19:54;8.30;99.90
42907;DHT22;28552;51.146;6.576;2023-02-04T10:22:55;8.30;99.90
42907;DHT22;28552;51.146;6.576;2023-02-04T10:25:55;8.40;99.90
42907;DHT22;28552;51.146;6.576;2023-02-04T10:31:58;8.70;99.90
42907;DHT22;28552;51.146;6.576;2023-02-04T10:35:00;8.80;99.90
42907;DHT22;28552;51.146;6.576;2023-02-04T10:38:03;8.90;99.90
42907;DHT22;28552;51.146;6.576;2023-02-04T10:41:05;8.90;99.90
42907;DHT22;28552;51.146;6.576;2023-02-04T10:44:09;9.00;99.90
42907;DHT22;28552;51.146;6.576;2023-02-04T10:47:19;9.10;99.90
42907;DHT22;28552;51.146;6.576;2023-02-04T10:50:23;9.20;99.90
42907;DHT22;28552;51.146;6.576;2023-02-04T10:53:24;9.20;99.90
42907;DHT22;28552;51.146;6.576;2023-02-04T10:56:41;9.30;99.90
42907;DHT22;28552;51.146;6.576;2023-02-04T10:59:43;9.40;99.90
42907;DHT22;28552;51.146;6.576;2023-02-04T11:02:52;9.40;99.90
42907;DHT22;28552;51.146;6.576;2023-02-04T11:05:57;9.40;99.90
42907;DHT22;28552;51.146;6.576;2023-02-04T11:08:58;9.50;99.90
42907;DHT22;28552;51.146;6.576;2023-02-04T11:11:58;9.70;99.90
42907;DHT22;28552;51.146;6.576;2023-02-04T11:15:00;9.80;99.90
42907;DHT22;28552;51.146;6.576;2023-02-04T11:18:03;9.80;99.90
42907;DHT22;28552;51.146;6.576;2023-02-04T11:21:14;9.90;99.90
42907;DHT22;28552;51.146;6.576;2023-02-04T11:24:23;9.80;99.90
42907;DHT22;28552;51.146;6.576;2023-02-04T11:27:35;9.80;99.90
42907;DHT22;28552;51.146;6.576;2023-02-04T11:30:36;9.80;99.90
42907;DHT22;28552;51.146;6.576;2023-02-04T11:33:39;9.70;99.90
42907;DHT22;28552;51.146;6.576;2023-02-04T11:36:54;9.60;99.90
42907;DHT22;28552;51.146;6.576;2023-02-04T11:39:57;9.40;99.90
42907;DHT22;28552;51.146;6.576;2023-02-04T11:43:02;9.50;99.90
42907;DHT22;28552;51.146;6.576;2023-02-04T11:46:12;9.50;99.90
42907;DHT22;28552;51.146;6.576;2023-02-04T11:49:18;9.60;99.90
42907;DHT22;28552;51.146;6.576;2023-02-04T11:52:20;9.80;99.90
42907;DHT22;28552;51.146;6.576;2023-02-04T11:55:20;9.80;99.90
42907;DHT22;28552;51.146;6.576;2023-02-04T11:58:21;9.90;99.90
42907;DHT22;28552;51.146;6.576;2023-02-04T12:01:33;9.90;99.90
42907;DHT22;28552;51.146;6.576;2023-02-04T12:04:33;9.90;99.90
42907;DHT22;28552;51.146;6.576;2023-02-04T12:07:34;9.70;99.90
42907;DHT22;28552;51.146;6.576;2023-02-04T12:10:34;9.60;99.90
42907;DHT22;28552;51.146;6.576;2023-02-04T12:13:46;9.70;99.90
42907;DHT22;28552;51.146;6.576;2023-02-04T12:16:48;9.80;99.90
42907;DHT22;28552;51.146;6.576;2023-02-04T12:19:52;9.80;99.90
42907;DHT22;28552;51.146;6.576;2023-02-04T12:22:53;9.90;99.90
42907;DHT22;28552;51.146;6.576;2023-02-04T12:25:54;10.00;99.90
42907;DHT22;28552;51.146;6.576;2023-02-04T12:28:54;9.90;99.90
42907;DHT22;28552;51.146;6.576;2023-02-04T12:31:55;9.90;99.90
42907;DHT22;28552;51.146;6.576;2023-02-04T12:34:55;9.90;99.90
42907;DHT22;28552;51.146;6.576;2023-02-04T12:37:56;10.10;99.90
42907;DHT22;28552;51.146;6.576;2023-02-04T12:40:57;10.20;99.90
42907;DHT22;28552;51.146;6.576;2023-02-04T12:43:57;10.30;99.90
42907;DHT22;28552;51.146;6.576;2023-02-04T12:47:00;10.20;99.90
42907;DHT22;28552;51.146;6.576;2023-02-04T12:50:00;10.30;99.90
42907;DHT22;28552;51.146;6.576;2023-02-04T12:53:01;10.40;99.90
42907;DHT22;28552;51.146;6.576;2023-02-04T12:56:02;10.50;99.90
42907;DHT22;28552;51.146;6.576;2023-02-04T12:59:02;10.60;99.90
42907;DHT22;28552;51.146;6.576;2023-02-04T13:02:03;10.50;99.90
42907;DHT22;28552;51.146;6.576;2023-02-04T13:05:03;10.40;99.90
42907;DHT22;28552;51.146;6.576;2023-02-04T13:08:04;10.40;99.90
42907;DHT22;28552;51.146;6.576;2023-02-04T13:11:05;10.30;99.90
42907;DHT22;28552;51.146;6.576;2023-02-04T13:14:05;10.30;99.90
42907;DHT22;28552;51.146;6.576;2023-02-04T13:17:06;10.30;99.90
42907;DHT22;28552;51.146;6.576;2023-02-04T13:20:07;10.30;99.90
42907;DHT22;28552;51.146;6.576;2023-02-04T13:23:08;10.30;99.90
42907;DHT22;28552;51.146;6.576;2023-02-04T13:26:09;10.30;99.90
42907;DHT22;28552;51.146;6.576;2023-02-04T13:29:10;10.20;99.90
42907;DHT22;28552;51.146;6.576;2023-02-04T13:32:11;10.20;99.90
42907;DHT22;28552;51.146;6.576;2023-02-04T13:35:12;10.20;99.90
42907;DHT22;28552;51.146;6.576;2023-02-04T13:38:12;10.20;99.90
42907;DHT22;28552;51.146;6.576;2023-02-04T13:41:13;10.30;99.90
42907;DHT22;28552;51.146;6.576;2023-02-04T13:44:13;10.30;99.90
42907;DHT22;28552;51.146;6.576;2023-02-04T13:47:14;10.50;99.90
42907;DHT22;28552;51.146;6.576;2023-02-04T13:50:15;10.50;99.90
42907;DHT22;28552;51.146;6.576;2023-02-04T13:53:16;10.50;99.90
42907;DHT22;28552;51.146;6.576;2023-02-04T13:56:17;10.40;99.90
42907;DHT22;28552;51.146;6.576;2023-02-04T13:59:17;10.40;99.90
42907;DHT22;28552;51.146;6.576;2023-02-04T14:02:18;10.40;99.90
42907;DHT22;28552;51.146;6.576;2023-02-04T14:05:20;10.30;99.90
42907;DHT22;28552;51.146;6.576;2023-02-04T14:08:21;10.30;99.90
42907;DHT22;28552;51.146;6.576;2023-02-04T14:11:22;10.30;99.90
42907;DHT22;28552;51.146;6.576;2023-02-04T14:14:23;10.30;99.90
42907;DHT22;28552;51.146;6.576;2023-02-04T14:17:24;10.20;99.90
42907;DHT22;28552;51.146;6.576;2023-02-04T14:20:24;10.30;99.90
42907;DHT22;28552;51.146;6.576;2023-02-04T14:23:25;10.40;99.90
42907;DHT22;28552;51.146;6.576;2023-02-04T14:26:25;10.50;99.90
42907;DHT22;28552;51.146;6.576;2023-02-04T14:29:26;10.50;99.90
42907;DHT22;28552;51.146;6.576;2023-02-04T14:32:26;10.50;99.90
42907;DHT22;28552;51.146;6.576;2023-02-04T14:35:27;10.50;99.90
42907;DHT22;28552;51.146;6.576;2023-02-04T14:38:27;10.40;99.90
42907;DHT22;28552;51.146;6.576;2023-02-04T14:41:30;10.30;99.90
42907;DHT22;28552;51.146;6.576;2023-02-04T14:44:31;10.20;99.90
42907;DHT22;28552;51.146;6.576;2023-02-04T14:47:32;10.10;99.90
42907;DHT22;28552;51.146;6.576;2023-02-04T14:50:32;10.10;99.90
42907;DHT22;28552;51.146;6.576;2023-02-04T14:53:33;10.10;99.90
42907;DHT22;28552;51.146;6.576;2023-02-04T14:56:33;10.10;99.90
42907;DHT22;28552;51.146;6.576;2023-02-04T14:59:34;10.10;99.90
42907;DHT22;28552;51.146;6.576;2023-02-04T15:02:34;10.10;99.90
42907;DHT22;28552;51.146;6.576;2023-02-04T15:05:35;10.10;99.90
42907;DHT22;28552;51.146;6.576;2023-02-04T15:08:36;10.10;99.90
42907;DHT22;28552;51.146;6.576;2023-02-04T15:11:36;10.10;99.90
42907;DHT22;28552;51.146;6.576;2023-02-04T15:14:37;10.10;99.90
42907;DHT22;28552;51.146;6.576;2023-02-04T15:17:38;10.00;99.90
42907;DHT22;28552;51.146;6.576;2023-02-04T15:20:38;10.00;99.90
42907;DHT22;28552;51.146;6.576;2023-02-04T15:23:39;10.00;99.90
42907;DHT22;28552;51.146;6.576;2023-02-04T15:26:39;10.00;99.90
42907;DHT22;28552;51.146;6.576;2023-02-04T15:29:40;9.90;99.90
42907;DHT22;28552;51.146;6.576;2023-02-04T15:32:40;9.90;99.90
42907;DHT22;28552;51.146;6.576;2023-02-04T15:35:42;9.80;99.90
42907;DHT22;28552;51.146;6.576;2023-02-04T15:38:43;9.80;99.90
42907;DHT22;28552;51.146;6.576;2023-02-04T15:41:43;9.70;99.90
42907;DHT22;28552;51.146;6.576;2023-02-04T15:44:44;9.70;99.90
42907;DHT22;28552;51.146;6.576;2023-02-04T15:47:44;9.70;99.90
42907;DHT22;28552;51.146;6.576;2023-02-04T15:50:45;9.60;99.90
42907;DHT22;28552;51.146;6.576;2023-02-04T15:53:45;9.60;99.90
42907;DHT22;28552;51.146;6.576;2023-02-04T15:56:46;9.50;99.90
42907;DHT22;28552;51.146;6.576;2023-02-04T15:59:46;9.50;99.90
42907;DHT22;28552;51.146;6.576;2023-02-04T16:02:47;9.40;99.90
42907;DHT22;28552;51.146;6.576;2023-02-04T16:05:48;9.30;99.90
42907;DHT22;28552;51.146;6.576;2023-02-04T16:08:48;9.10;99.90
42907;DHT22;28552;51.146;6.576;2023-02-04T16:11:49;9.00;99.90
42907;DHT22;28552;51.146;6.576;2023-02-04T16:14:49;8.90;99.90
42907;DHT22;28552;51.146;6.576;2023-02-04T16:17:50;8.80;99.90
42907;DHT22;28552;51.146;6.576;2023-02-04T16:20:50;8.60;99.90
42907;DHT22;28552;51.146;6.576;2023-02-04T16:23:51;8.50;99.90
42907;DHT22;28552;51.146;6.576;2023-02-04T16:26:51;8.40;99.90
42907;DHT22;28552;51.146;6.576;2023-02-04T16:29:52;8.40;99.90
42907;DHT22;28552;51.146;6.576;2023-02-04T16:32:53;8.40;99.90
42907;DHT22;28552;51.146;6.576;2023-02-04T16:36:00;8.30;99.90
42907;DHT22;28552;51.146;6.576;2023-02-04T16:39:01;8.30;99.90
42907;DHT22;28552;51.146;6.576;2023-02-04T16:42:02;8.30;99.90
42907;DHT22;28552;51.146;6.576;2023-02-04T16:45:05;8.30;99.90
42907;DHT22;28552;51.146;6.576;2023-02-04T16:48:06;8.30;99.90
42907;DHT22;28552;51.146;6.576;2023-02-04T16:51:07;8.30;99.90
42907;DHT22;28552;51.146;6.576;2023-02-04T16:54:07;8.40;99.90
42907;DHT22;28552;51.146;6.576;2023-02-04T16:57:09;8.40;99.90
42907;DHT22;28552;51.146;6.576;2023-02-04T17:00:11;8.40;99.90
42907;DHT22;28552;51.146;6.576;2023-02-04T17:03:12;8.40;99.90
42907;DHT22;28552;51.146;6.576;2023-02-04T17:06:13;8.40;99.90
42907;DHT22;28552;51.146;6.576;2023-02-04T17:09:15;8.30;99.90
42907;DHT22;28552;51.146;6.576;2023-02-04T17:12:16;8.20;99.90
42907;DHT22;28552;51.146;6.576;2023-02-04T17:15:16;8.20;99.90
42907;DHT22;28552;51.146;6.576;2023-02-04T17:18:17;8.10;99.90
42907;DHT22;28552;51.146;6.576;2023-02-04T17:21:18;8.10;99.90
42907;DHT22;28552;51.146;6.576;2023-02-04T17:24:19;8.10;99.90
42907;DHT22;28552;51.146;6.576;2023-02-04T17:27:19;8.10;99.90
42907;DHT22;28552;51.146;6.576;2023-02-04T17:30:20;8.20;99.90
42907;DHT22;28552;51.146;6.576;2023-02-04T17:33:20;8.20;99.90
42907;DHT22;28552;51.146;6.576;2023-02-04T17:36:21;8.20;99.90
42907;DHT22;28552;51.146;6.576;2023-02-04T17:39:22;8.20;99.90
42907;DHT22;28552;51.146;6.576;2023-02-04T17:42:22;8.20;99.90
42907;DHT22;28552;51.146;6.576;2023-02-04T17:45:23;8.20;99.90
42907;DHT22;28552;51.146;6.576;2023-02-04T17:48:23;8.20;99.90
42907;DHT22;28552;51.146;6.576;2023-02-04T17:51:24;8.30;99.90
42907;DHT22;28552;51.146;6.576;2023-02-04T17:54:25;8.30;99.90
42907;DHT22;28552;51.146;6.576;2023-02-04T17:57:27;8.30;99.90
42907;DHT22;28552;51.146;6.576;2023-02-04T18:00:29;8.30;99.90
42907;DHT22;28552;51.146;6.576;2023-02-04T18:03:30;8.30;99.90
42907;DHT22;28552;51.146;6.576;2023-02-04T18:06:31;8.30;99.90
42907;DHT22;28552;51.146;6.576;2023-02-04T18:09:32;8.30;99.90
42907;DHT22;28552;51.146;6.576;2023-02-04T18:12:33;8.30;99.90
42907;DHT22;28552;51.146;6.576;2023-02-04T18:15:34;8.30;99.90
42907;DHT22;28552;51.146;6.576;2023-02-04T18:18:36;8.30;99.90
42907;DHT22;28552;51.146;6.576;2023-02-04T18:21:38;8.30;99.90
42907;DHT22;28552;51.146;6.576;2023-02-04T18:24:40;8.30;99.90
42907;DHT22;28552;51.146;6.576;2023-02-04T18:27:42;8.30;99.90
42907;DHT22;28552;51.146;6.576;2023-02-04T18:30:43;8.20;99.90
42907;DHT22;28552;51.146;6.576;2023-02-04T18:33:44;8.20;99.90
42907;DHT22;28552;51.146;6.576;2023-02-04T18:36:46;8.10;99.90
42907;DHT22;28552;51.146;6.576;2023-02-04T18:39:47;8.00;99.90
42907;DHT22;28552;51.146;6.576;2023-02-04T18:42:48;7.90;99.90
42907;DHT22;28552;51.146;6.576;2023-02-04T18:45:49;7.70;99.90
42907;DHT22;28552;51.146;6.576;2023-02-04T18:51:54;7.40;99.90
42907;DHT22;28552;51.146;6.576;2023-02-04T18:54:56;7.30;99.90
42907;DHT22;28552;51.146;6.576;2023-02-04T19:01:16;7.00;99.90
42907;DHT22;28552;51.146;6.576;2023-02-04T19:04:23;7.00;99.90
42907;DHT22;28552;51.146;6.576;2023-02-04T19:07:25;6.90;99.90
42907;DHT22;28552;51.146;6.576;2023-02-04T19:10:29;6.80;99.90
42907;DHT22;28552;51.146;6.576;2023-02-04T19:13:40;6.80;99.90
42907;DHT22;28552;51.146;6.576;2023-02-04T19:16:41;6.70;99.90
42907;DHT22;28552;51.146;6.576;2023-02-04T19:19:46;6.60;99.90
42907;DHT22;28552;51.146;6.576;2023-02-04T19:22:52;6.50;99.90
42907;DHT22;28552;51.146;6.576;2023-02-04T19:25:53;6.40;99.90
42907;DHT22;28552;51.146;6.576;2023-02-04T19:28:54;6.40;99.90
42907;DHT22;28552;51.146;6.576;2023-02-04T19:32:06;6.40;99.90